Time;durP1;ratioP1;P1;durP2;ratioP2;P2;SDS_P1;SDS_P2;PMS_P1;PMS_P2;Temp;Humidity;BMP_temperature;BMP_pressure;BME280_temperature;BME280_humidity;BME280_pressure;Samples;Min_cycle;Max_cycle;Signal;HPM_P1;HPM_P2
2021/08/28 00:00:59;;;;;;;35.25;26.33;;;17.30;92.00;;;;;;5015313;28;20080;-85
2021/08/28 00:03:25;;;;;;;39.00;27.15;;;17.20;91.90;;;;;;5014944;28;20849;-84
2021/08/28 00:05:51;;;;;;;37.45;27.60;;;17.20;91.80;;;;;;5014915;28;20026;-85
2021/08/28 00:08:17;;;;;;;34.95;25.88;;;17.20;91.80;;;;;;5014465;28;20033;-84
2021/08/28 00:10:43;;;;;;;36.00;27.33;;;17.20;91.90;;;;;;5014495;28;20026;-83
2021/08/28 00:13:10;;;;;;;38.63;27.30;;;17.20;92.00;;;;;;4996365;28;20410;-83
2021/08/28 00:15:36;;;;;;;38.10;28.27;;;17.20;92.20;;;;;;5014175;28;20030;-82
2021/08/28 00:18:02;;;;;;;40.15;28.42;;;17.10;92.20;;;;;;5013713;28;20105;-83
2021/08/28 00:20:28;;;;;;;38.67;26.95;;;17.10;92.30;;;;;;4995566;28;20469;-82
2021/08/28 00:22:54;;;;;;;34.20;26.75;;;17.10;92.30;;;;;;5013810;28;20049;-83
2021/08/28 00:25:20;;;;;;;32.85;24.70;;;17.10;91.90;;;;;;5013781;28;20332;-83
2021/08/28 00:27:45;;;;;;;31.13;25.40;;;17.00;91.80;;;;;;5014015;28;20033;-83
2021/08/28 00:30:11;;;;;;;35.22;25.35;;;17.00;91.80;;;;;;5013797;28;20033;-82
2021/08/28 00:32:38;;;;;;;34.70;26.50;;;17.00;91.90;;;;;;5014150;28;20109;-83
2021/08/28 00:35:06;;;;;;;36.88;26.15;;;17.00;92.00;;;;;;5014854;28;20055;-81
2021/08/28 00:37:32;;;;;;;35.75;26.65;;;17.00;92.00;;;;;;5014311;28;20372;-81
2021/08/28 00:39:58;;;;;;;34.25;25.20;;;17.00;92.10;;;;;;5014133;28;20105;-81
2021/08/28 00:42:24;;;;;;;33.40;25.15;;;17.00;92.20;;;;;;5013563;28;20077;-83
2021/08/28 00:44:52;;;;;;;34.95;25.83;;;17.00;92.30;;;;;;5013991;28;20029;-83
2021/08/28 00:47:18;;;;;;;33.45;24.88;;;17.00;92.40;;;;;;5014271;28;20038;-83
2021/08/28 00:49:47;;;;;;;33.45;24.83;;;17.00;92.40;;;;;;4996763;28;20115;-83
2021/08/28 00:52:13;;;;;;;35.38;25.50;;;17.00;92.40;;;;;;5013717;28;20026;-82
2021/08/28 00:54:39;;;;;;;33.08;25.15;;;17.00;92.40;;;;;;5014879;28;20041;-82
2021/08/28 00:57:09;;;;;;;30.35;23.58;;;17.00;92.00;;;;;;5014332;28;20064;-83
2021/08/28 00:59:35;;;;;;;30.42;24.02;;;17.00;91.80;;;;;;5014307;28;20057;-83
2021/08/28 01:02:02;;;;;;;28.02;21.48;;;17.00;91.80;;;;;;5014502;28;20515;-83
2021/08/28 01:04:38;;;;;;;28.92;22.80;;;17.00;91.80;;;;;;5014128;28;20034;-82
2021/08/28 01:07:42;;;;;;;27.35;22.73;;;17.00;91.80;;;;;;5013699;28;20076;-82
2021/08/28 01:10:10;;;;;;;30.13;23.83;;;17.00;91.80;;;;;;5013782;28;20088;-83
2021/08/28 01:12:39;;;;;;;29.48;23.27;;;17.00;91.90;;;;;;5014186;28;20033;-83
2021/08/28 01:15:08;;;;;;;34.30;24.05;;;17.00;91.90;;;;;;5015174;28;20076;-82
2021/08/28 01:17:38;;;;;;;28.63;21.80;;;17.10;91.90;;;;;;5013741;28;20029;-83
2021/08/28 01:20:18;;;;;;;28.88;22.70;;;17.10;91.90;;;;;;5013819;28;20022;-81
2021/08/28 01:22:45;;;;;;;29.05;22.25;;;17.00;91.80;;;;;;5013301;28;20101;-83
2021/08/28 01:25:11;;;;;;;27.65;22.17;;;17.00;91.80;;;;;;5013605;28;20049;-83
2021/08/28 01:27:55;;;;;;;30.55;21.80;;;17.00;91.80;;;;;;5013063;28;20108;-82
2021/08/28 01:30:21;;;;;;;27.73;22.70;;;17.00;91.80;;;;;;5013114;28;20049;-83
2021/08/28 01:32:48;;;;;;;30.48;22.73;;;16.90;91.80;;;;;;5014437;28;20049;-82
2021/08/28 01:35:14;;;;;;;30.10;23.10;;;16.90;91.80;;;;;;5016424;28;20022;-82
2021/08/28 01:37:42;;;;;;;27.15;21.48;;;16.90;91.80;;;;;;4999160;28;20029;-82
2021/08/28 01:40:11;;;;;;;28.92;22.23;;;16.90;91.80;;;;;;5016399;28;20026;-82
2021/08/28 01:42:38;;;;;;;28.25;22.73;;;16.80;91.80;;;;;;5016600;28;20134;-82
2021/08/28 01:45:07;;;;;;;28.95;23.70;;;16.80;91.70;;;;;;5016250;28;20058;-82
2021/08/28 01:47:33;;;;;;;31.33;22.77;;;16.80;91.40;;;;;;4998435;28;20357;-82
2021/08/28 01:50:00;;;;;;;31.77;22.58;;;16.70;91.30;;;;;;4998202;28;20032;-82
2021/08/28 01:52:26;;;;;;;27.15;21.13;;;16.70;91.30;;;;;;5016196;28;20033;-81
2021/08/28 01:54:53;;;;;;;33.13;23.38;;;16.60;91.30;;;;;;4998621;28;20022;-81
2021/08/28 01:57:19;;;;;;;28.23;22.10;;;16.60;91.40;;;;;;5015776;28;20086;-81
2021/08/28 01:59:45;;;;;;;29.45;22.33;;;16.60;91.70;;;;;;5015397;28;20427;-82
2021/08/28 02:02:10;;;;;;;27.15;21.20;;;16.60;91.70;;;;;;5015439;28;20034;-81
2021/08/28 02:04:38;;;;;;;33.35;24.30;;;16.60;91.60;;;;;;5015438;28;20034;-81
2021/08/28 02:07:22;;;;;;;34.30;21.92;;;16.60;92.00;;;;;;4997591;28;20423;-81
2021/08/28 02:09:57;;;;;;;31.33;22.55;;;16.60;91.80;;;;;;5015806;28;20030;-81
2021/08/28 02:12:30;;;;;;;28.98;22.50;;;16.60;91.80;;;;;;5017730;28;20073;-80
2021/08/28 02:15:06;;;;;;;31.58;22.58;;;16.60;91.80;;;;;;5016779;28;20022;-80
2021/08/28 02:17:36;;;;;;;28.98;22.42;;;16.60;91.90;;;;;;5016406;28;20029;-80
2021/08/28 02:20:04;;;;;;;28.23;21.48;;;16.70;92.00;;;;;;4998719;28;20026;-81
2021/08/28 02:22:37;;;;;;;35.22;23.10;;;16.70;92.00;;;;;;4998528;28;20430;-81
2021/08/28 02:25:28;;;;;;;33.28;25.60;;;16.80;91.90;;;;;;5015505;28;20164;-80
2021/08/28 02:28:03;;;;;;;32.05;23.95;;;16.90;91.80;;;;;;5015780;28;20025;-81
2021/08/28 02:30:31;;;;;;;32.95;22.48;;;17.00;91.50;;;;;;4997615;28;20383;-80
2021/08/28 02:32:59;;;;;;;31.83;22.88;;;17.10;91.10;;;;;;5015108;28;20065;-80
2021/08/28 02:35:27;;;;;;;32.20;21.75;;;17.10;90.70;;;;;;5015152;28;20030;-79
2021/08/28 02:37:55;;;;;;;31.48;21.73;;;17.20;90.40;;;;;;5015049;28;20591;-80
2021/08/28 02:40:22;;;;;;;34.08;22.45;;;17.20;90.10;;;;;;4997588;28;20030;-80
2021/08/28 02:42:49;;;;;;;42.67;26.08;;;17.20;89.80;;;;;;5013998;28;20030;-80
2021/08/28 02:45:21;;;;;;;41.45;27.33;;;17.30;89.60;;;;;;5014628;28;20037;-80
2021/08/28 02:47:48;;;;;;;50.72;29.38;;;17.40;89.50;;;;;;5014749;28;20101;-79
2021/08/28 02:50:15;;;;;;;76.65;40.42;;;17.30;89.30;;;;;;5014579;28;20029;-79
2021/08/28 02:52:44;;;;;;;73.82;39.03;;;17.40;89.10;;;;;;5014512;28;20472;-80
2021/08/28 02:55:11;;;;;;;93.20;46.08;;;17.40;89.00;;;;;;4996402;28;20389;-80
2021/08/28 02:57:40;;;;;;;52.33;30.00;;;17.40;89.00;;;;;;5014290;28;20460;-80
2021/08/28 03:00:06;;;;;;;68.22;36.45;;;17.50;89.10;;;;;;5014586;28;20022;-81
2021/08/28 03:02:33;;;;;;;65.93;37.50;;;17.50;88.90;;;;;;5014445;28;20026;-82
2021/08/28 03:04:59;;;;;;;68.63;37.83;;;17.50;88.80;;;;;;5014705;28;20395;-82
2021/08/28 03:07:25;;;;;;;57.33;32.22;;;17.60;88.90;;;;;;5015719;28;20032;-83
2021/08/28 03:09:51;;;;;;;45.78;28.23;;;17.60;88.70;;;;;;5015563;28;20369;-82
2021/08/28 03:12:18;;;;;;;63.13;36.25;;;17.70;88.80;;;;;;5015780;28;20053;-83
2021/08/28 03:14:44;;;;;;;38.03;26.02;;;17.80;88.30;;;;;;5015489;28;20018;-83
2021/08/28 03:17:13;;;;;;;40.38;26.95;;;17.90;87.70;;;;;;5015341;28;20025;-82
2021/08/28 03:19:42;;;;;;;36.70;23.65;;;18.20;87.20;;;;;;4996748;28;20069;-83
2021/08/28 03:22:12;;;;;;;30.15;22.67;;;18.40;86.00;;;;;;5014148;28;20030;-83
2021/08/28 03:24:40;;;;;;;27.83;20.65;;;18.70;84.90;;;;;;5014323;28;20021;-82
2021/08/28 03:27:08;;;;;;;28.00;19.42;;;18.90;83.70;;;;;;5014043;28;20472;-81
2021/08/28 03:29:35;;;;;;;33.72;21.92;;;19.20;82.60;;;;;;5014022;28;20037;-80
2021/08/28 03:32:03;;;;;;;25.40;19.88;;;19.40;81.80;;;;;;5014157;28;20531;-86
2021/08/28 03:34:29;;;;;;;27.02;19.88;;;19.40;81.10;;;;;;5014586;28;20026;-86
2021/08/28 03:36:56;;;;;;;26.60;20.50;;;19.70;80.90;;;;;;4996787;28;20026;-85
2021/08/28 03:39:21;;;;;;;29.05;19.10;;;20.00;80.00;;;;;;4996498;28;20025;-85
2021/08/28 03:41:47;;;;;;;29.67;20.85;;;20.40;79.20;;;;;;5014916;28;20046;-86
2021/08/28 03:44:17;;;;;;;31.02;21.55;;;20.90;78.00;;;;;;4997694;28;20036;-89
2021/08/28 03:46:45;;;;;;;36.78;24.00;;;21.10;76.00;;;;;;4997799;28;20035;-90
2021/08/28 03:49:11;;;;;;;44.10;27.90;;;21.10;75.50;;;;;;4998156;28;20030;-91
2021/08/28 03:51:37;;;;;;;43.25;26.00;;;21.10;75.00;;;;;;4997904;28;20029;-84
2021/08/28 03:54:03;;;;;;;58.45;31.75;;;20.90;75.00;;;;;;5013748;28;20018;-80
2021/08/28 03:56:29;;;;;;;35.20;22.55;;;20.70;74.90;;;;;;4994972;28;20472;-80
2021/08/28 03:58:55;;;;;;;37.97;23.60;;;20.70;75.30;;;;;;5013135;28;20064;-80
2021/08/28 04:01:21;;;;;;;32.05;21.98;;;21.10;75.30;;;;;;5013276;28;20053;-80
2021/08/28 04:03:47;;;;;;;27.80;20.20;;;21.30;73.80;;;;;;5013309;28;20088;-82
2021/08/28 04:06:13;;;;;;;33.88;18.45;;;21.50;73.10;;;;;;4995609;28;20026;-80
2021/08/28 04:08:39;;;;;;;36.30;17.38;;;21.90;73.00;;;;;;5012896;28;20029;-81
2021/08/28 04:11:04;;;;;;;26.95;16.48;;;22.40;71.20;;;;;;5012997;28;20060;-81
2021/08/28 04:13:30;;;;;;;35.63;17.35;;;22.80;69.80;;;;;;5012455;28;20472;-81
2021/08/28 04:15:56;;;;;;;38.55;17.52;;;23.20;69.10;;;;;;4994978;28;20026;-80
2021/08/28 04:18:22;;;;;;;44.45;18.15;;;23.70;67.80;;;;;;5012202;28;20018;-80
2021/08/28 04:20:48;;;;;;;55.70;23.15;;;23.90;66.60;;;;;;5012232;28;20364;-81
2021/08/28 04:23:13;;;;;;;71.07;26.60;;;24.20;66.00;;;;;;5012384;28;20057;-80
2021/08/28 04:25:39;;;;;;;54.25;26.38;;;24.30;65.30;;;;;;5012494;28;20113;-80
2021/08/28 04:28:05;;;;;;;52.35;24.08;;;24.30;65.00;;;;;;5013078;28;20083;-80
2021/08/28 04:30:32;;;;;;;38.55;20.75;;;24.20;64.90;;;;;;5012852;28;20033;-81
2021/08/28 04:32:58;;;;;;;37.75;20.10;;;24.20;64.80;;;;;;4996308;28;20029;-81
2021/08/28 04:35:24;;;;;;;30.25;18.35;;;24.20;64.30;;;;;;4995023;28;20029;-80
2021/08/28 04:37:51;;;;;;;35.63;21.50;;;24.10;64.00;;;;;;5012926;28;20025;-80
2021/08/28 04:40:17;;;;;;;46.90;23.35;;;24.10;64.30;;;;;;5012550;28;20033;-81
2021/08/28 04:42:43;;;;;;;23.95;17.13;;;24.00;64.40;;;;;;5012262;28;20278;-80
2021/08/28 04:45:09;;;;;;;44.15;22.58;;;24.50;64.80;;;;;;5012537;28;20571;-81
2021/08/28 04:47:35;;;;;;;49.90;28.02;;;25.60;63.50;;;;;;5012337;28;20026;-81
2021/08/28 04:50:01;;;;;;;78.95;39.00;;;26.90;61.70;;;;;;5012707;28;20037;-82
2021/08/28 04:52:27;;;;;;;92.43;43.40;;;28.10;59.40;;;;;;5012664;28;20037;-82
2021/08/28 04:54:52;;;;;;;56.05;31.05;;;29.10;57.20;;;;;;4994547;28;20472;-87
2021/08/28 04:57:18;;;;;;;59.88;30.50;;;29.90;55.60;;;;;;4994825;28;20538;-80
2021/08/28 04:59:44;;;;;;;97.13;47.03;;;30.60;54.00;;;;;;5010918;28;20034;-85
2021/08/28 05:02:09;;;;;;;106.07;44.97;;;30.70;52.40;;;;;;5013849;28;20029;-84
2021/08/28 05:04:35;;;;;;;90.35;43.53;;;30.20;52.10;;;;;;5013406;28;20092;-79
2021/08/28 05:07:01;;;;;;;90.15;42.47;;;29.50;52.20;;;;;;5014246;28;20357;-79
2021/08/28 05:09:27;;;;;;;94.15;42.33;;;28.80;52.60;;;;;;5016091;28;20476;-79
2021/08/28 05:11:53;;;;;;;82.72;37.63;;;28.00;53.30;;;;;;5016859;28;20428;-79
2021/08/28 05:14:19;;;;;;;79.53;36.20;;;27.30;54.30;;;;;;5014415;28;20030;-80
2021/08/28 05:16:44;;;;;;;87.07;38.08;;;26.70;55.30;;;;;;5016652;28;20430;-83
2021/08/28 05:19:10;;;;;;;91.00;42.63;;;26.20;56.80;;;;;;5016058;28;20014;-81
2021/08/28 05:21:36;;;;;;;117.32;48.28;;;25.80;57.10;;;;;;5015838;28;20029;-81
2021/08/28 05:24:01;;;;;;;115.85;48.17;;;25.80;57.90;;;;;;5016089;28;20570;-81
2021/08/28 05:26:27;;;;;;;119.32;49.15;;;26.40;57.90;;;;;;5009640;28;20086;-82
2021/08/28 05:28:53;;;;;;;117.68;52.05;;;27.30;56.90;;;;;;5009571;28;20040;-79
2021/08/28 05:31:18;;;;;;;106.15;46.38;;;28.30;56.00;;;;;;5015655;28;20041;-79
2021/08/28 05:33:44;;;;;;;105.00;46.47;;;29.20;54.00;;;;;;5015970;28;20388;-81
2021/08/28 05:36:10;;;;;;;102.70;44.30;;;29.90;52.50;;;;;;5013032;28;20026;-82
2021/08/28 05:38:35;;;;;;;99.30;42.88;;;30.70;51.80;;;;;;5006912;28;20037;-82
2021/08/28 05:41:02;;;;;;;82.10;35.67;;;31.60;50.80;;;;;;5016079;28;20112;-82
2021/08/28 05:43:28;;;;;;;59.58;27.92;;;32.30;49.50;;;;;;5016247;28;20026;-79
2021/08/28 05:45:55;;;;;;;43.08;20.83;;;33.10;48.10;;;;;;4997685;28;20436;-80
2021/08/28 05:48:22;;;;;;;28.83;17.77;;;33.90;47.30;;;;;;5015271;28;20017;-81
2021/08/28 05:50:48;;;;;;;19.98;14.68;;;34.70;46.00;;;;;;5021804;28;20022;-83
2021/08/28 05:53:14;;;;;;;20.13;13.68;;;35.40;45.20;;;;;;4999217;28;20037;-81
2021/08/28 05:55:40;;;;;;;16.45;12.63;;;36.00;44.40;;;;;;5016154;28;20022;-81
2021/08/28 05:58:06;;;;;;;15.60;12.20;;;36.20;43.60;;;;;;5015704;28;20036;-79
2021/08/28 06:00:31;;;;;;;14.73;11.60;;;36.70;43.50;;;;;;5015045;28;20028;-79
2021/08/28 06:02:57;;;;;;;14.80;10.88;;;37.20;42.90;;;;;;5015214;28;20066;-82
2021/08/28 06:05:23;;;;;;;14.20;11.57;;;37.80;42.40;;;;;;5015613;28;20078;-81
2021/08/28 06:07:48;;;;;;;14.88;11.45;;;38.30;41.70;;;;;;5015193;28;20033;-82
2021/08/28 06:10:14;;;;;;;15.30;10.90;;;38.70;41.50;;;;;;4997560;28;20034;-81
2021/08/28 06:12:40;;;;;;;16.27;11.05;;;39.00;41.30;;;;;;5015288;28;20090;-81
2021/08/28 06:15:07;;;;;;;12.60;10.90;;;39.40;40.70;;;;;;5014635;28;20026;-81
2021/08/28 06:17:34;;;;;;;13.73;10.98;;;39.60;40.40;;;;;;5014425;28;20022;-82
2021/08/28 06:19:59;;;;;;;19.77;11.38;;;39.70;39.90;;;;;;5014570;28;20027;-81
2021/08/28 06:22:25;;;;;;;13.80;11.07;;;39.40;39.90;;;;;;5013976;28;20426;-81
2021/08/28 06:24:51;;;;;;;15.85;11.13;;;38.90;40.30;;;;;;5014757;28;20472;-81
2021/08/28 06:27:17;;;;;;;13.48;10.73;;;38.70;40.30;;;;;;5014939;28;20050;-80
2021/08/28 06:29:43;;;;;;;14.65;10.93;;;38.50;40.50;;;;;;5015280;28;20026;-79
2021/08/28 06:32:08;;;;;;;17.38;10.95;;;38.30;40.60;;;;;;5015491;28;20095;-80
2021/08/28 06:34:34;;;;;;;17.95;10.85;;;37.70;40.80;;;;;;5016340;28;20129;-80
2021/08/28 06:37:00;;;;;;;20.98;11.15;;;37.00;41.20;;;;;;5014935;28;20033;-78
2021/08/28 06:39:26;;;;;;;13.77;11.40;;;36.40;41.80;;;;;;5012445;28;20160;-77
2021/08/28 06:41:51;;;;;;;15.57;12.20;;;35.60;42.00;;;;;;4979397;28;20504;-78
2021/08/28 06:44:17;;;;;;;16.10;11.40;;;34.80;42.80;;;;;;5014052;28;20033;-78
2021/08/28 06:46:43;;;;;;;15.65;11.70;;;34.30;43.90;;;;;;5014043;28;20053;-78
2021/08/28 06:49:09;;;;;;;15.75;12.35;;;33.90;44.60;;;;;;5013772;28;20145;-78
2021/08/28 06:51:35;;;;;;;17.35;12.13;;;33.70;45.20;;;;;;5002101;28;20393;-78
2021/08/28 06:54:01;;;;;;;17.40;12.07;;;33.50;45.50;;;;;;5013197;28;20033;-78
2021/08/28 06:56:47;;;;;;;15.73;11.88;;;33.20;45.60;;;;;;5013639;28;20022;-78
2021/08/28 06:59:13;;;;;;;15.35;12.27;;;33.10;45.90;;;;;;4999009;28;20706;-79
2021/08/28 07:01:59;;;;;;;18.90;11.65;;;33.20;46.10;;;;;;5015815;28;20026;-79
2021/08/28 07:04:25;;;;;;;15.55;11.77;;;33.70;45.90;;;;;;5003999;28;20046;-80
2021/08/28 07:06:52;;;;;;;12.85;11.52;;;34.20;45.30;;;;;;5013562;28;20133;-78
2021/08/28 07:09:18;;;;;;;14.02;12.52;;;34.50;44.90;;;;;;5013952;28;20530;-76
2021/08/28 07:11:43;;;;;;;17.15;11.50;;;35.00;44.60;;;;;;5009551;28;20031;-78
2021/08/28 07:14:09;;;;;;;13.20;10.68;;;35.60;44.40;;;;;;5002753;28;20487;-78
2021/08/28 07:16:35;;;;;;;16.05;11.13;;;36.30;43.90;;;;;;4993933;28;20092;-77
2021/08/28 07:19:01;;;;;;;18.50;11.45;;;36.80;42.90;;;;;;4993730;28;20031;-80
2021/08/28 07:21:26;;;;;;;13.00;10.63;;;37.30;42.30;;;;;;4995059;28;20026;-82
2021/08/28 07:23:52;;;;;;;12.05;10.02;;;37.60;42.30;;;;;;4995348;28;20018;-80
2021/08/28 07:26:18;;;;;;;31.20;10.00;;;37.80;41.80;;;;;;4994569;28;20045;-81
2021/08/28 07:28:44;;;;;;;10.45;7.90;;;38.00;41.50;;;;;;4994493;28;20050;-80
2021/08/28 07:31:10;;;;;;;11.88;8.25;;;38.00;41.50;;;;;;4976888;28;20104;-81
2021/08/28 07:33:36;;;;;;;13.18;8.25;;;38.30;41.50;;;;;;4995319;28;20027;-80
2021/08/28 07:36:02;;;;;;;10.95;8.30;;;38.40;41.30;;;;;;5013875;28;20024;-81
2021/08/28 07:38:28;;;;;;;12.80;7.93;;;38.50;41.20;;;;;;5013544;28;20026;-81
2021/08/28 07:40:54;;;;;;;10.57;8.05;;;38.40;41.10;;;;;;5011887;28;20038;-81
2021/08/28 07:43:30;;;;;;;12.85;7.93;;;38.30;41.10;;;;;;5003685;28;20030;-77
2021/08/28 07:45:56;;;;;;;9.23;7.60;;;38.20;41.00;;;;;;4993081;28;20050;-78
2021/08/28 07:48:22;;;;;;;9.55;8.10;;;37.90;41.30;;;;;;4993140;28;20385;-78
2021/08/28 07:50:48;;;;;;;12.23;7.85;;;37.80;41.60;;;;;;4979023;28;20026;-79
2021/08/28 07:53:14;;;;;;;8.85;7.55;;;37.80;41.80;;;;;;5000719;28;20022;-76
2021/08/28 07:55:39;;;;;;;8.88;7.72;;;37.70;41.70;;;;;;4994813;28;20093;-76
2021/08/28 07:58:05;;;;;;;8.40;7.40;;;37.40;41.90;;;;;;5005440;28;20023;-77
2021/08/28 08:00:31;;;;;;;11.00;7.13;;;37.20;42.30;;;;;;5005846;28;20381;-77
2021/08/28 08:02:57;;;;;;;8.30;7.07;;;37.00;42.70;;;;;;5001586;28;20408;-77
2021/08/28 08:05:23;;;;;;;9.85;7.50;;;37.00;42.80;;;;;;5007695;28;20037;-77
2021/08/28 08:07:49;;;;;;;9.68;8.15;;;36.80;42.90;;;;;;4992983;28;20923;-78
2021/08/28 08:10:15;;;;;;;9.23;7.18;;;36.80;43.10;;;;;;5003065;28;20030;-78
2021/08/28 08:12:40;;;;;;;10.30;7.50;;;36.50;43.20;;;;;;5002265;28;20025;-78
2021/08/28 08:15:07;;;;;;;8.48;6.78;;;36.00;43.50;;;;;;5013617;28;20026;-78
2021/08/28 08:17:33;;;;;;;11.38;8.00;;;35.50;44.00;;;;;;5012780;28;20026;-75
2021/08/28 08:19:58;;;;;;;15.45;9.35;;;35.00;44.70;;;;;;5012499;28;20021;-77
2021/08/28 08:22:24;;;;;;;8.95;7.63;;;34.60;45.40;;;;;;5012558;28;20065;-77
2021/08/28 08:24:50;;;;;;;10.07;8.10;;;34.60;46.00;;;;;;5011895;28;20125;-77
2021/08/28 08:27:16;;;;;;;9.05;8.02;;;34.60;46.00;;;;;;5011715;28;20041;-77
2021/08/28 08:29:42;;;;;;;12.05;8.20;;;34.70;46.10;;;;;;5008994;28;20019;-77
2021/08/28 08:32:08;;;;;;;8.98;8.10;;;34.80;46.30;;;;;;5002658;28;20034;-79
2021/08/28 08:34:34;;;;;;;13.82;8.88;;;34.80;46.10;;;;;;5003173;28;20417;-78
2021/08/28 08:37:00;;;;;;;12.27;8.38;;;34.80;46.00;;;;;;5007908;28;20044;-77
2021/08/28 08:39:25;;;;;;;10.65;8.23;;;34.70;45.90;;;;;;5003744;28;20322;-76
2021/08/28 08:41:53;;;;;;;13.90;7.93;;;34.50;45.90;;;;;;5001210;28;20042;-77
2021/08/28 08:44:21;;;;;;;11.50;8.27;;;34.40;46.20;;;;;;5001766;28;20037;-77
2021/08/28 08:46:48;;;;;;;16.83;9.40;;;34.30;46.30;;;;;;4983311;28;20021;-80
2021/08/28 08:49:13;;;;;;;12.85;9.20;;;34.30;46.70;;;;;;5001429;28;20022;-79
2021/08/28 08:51:40;;;;;;;13.65;9.30;;;34.30;46.80;;;;;;4999733;28;20025;-83
2021/08/28 08:54:07;;;;;;;11.35;8.30;;;34.30;47.00;;;;;;5001337;28;20022;-85
2021/08/28 08:56:34;;;;;;;12.98;8.88;;;34.40;47.10;;;;;;5001761;28;20029;-82
2021/08/28 08:59:00;;;;;;;12.02;8.85;;;34.40;47.10;;;;;;5000131;28;20096;-83
2021/08/28 09:01:26;;;;;;;11.30;8.57;;;34.40;47.20;;;;;;5001604;28;20409;-78
2021/08/28 09:03:54;;;;;;;11.20;8.35;;;34.40;47.10;;;;;;5001583;28;20105;-85
2021/08/28 09:06:20;;;;;;;11.93;10.43;;;34.40;46.90;;;;;;4992479;28;20022;-80
2021/08/28 09:08:45;;;;;;;11.23;8.63;;;34.40;47.40;;;;;;4992266;28;20041;-76
2021/08/28 09:11:26;;;;;;;14.98;8.00;;;34.60;47.20;;;;;;5016027;28;20500;-82
2021/08/28 09:14:16;;;;;;;14.93;7.45;;;34.60;46.70;;;;;;5004547;28;20045;-82
2021/08/28 09:16:41;;;;;;;9.45;7.63;;;34.60;46.40;;;;;;5006120;28;20068;-77
2021/08/28 09:19:07;;;;;;;8.85;7.93;;;34.40;46.50;;;;;;5011170;28;20022;-79
2021/08/28 09:21:34;;;;;;;9.80;7.53;;;34.40;46.80;;;;;;5008259;28;20482;-82
2021/08/28 09:24:08;;;;;;;10.38;7.15;;;34.40;47.10;;;;;;5006705;28;20040;-79
2021/08/28 09:26:43;;;;;;;11.32;7.55;;;34.50;47.30;;;;;;5002436;28;20062;-79
2021/08/28 09:29:13;;;;;;;7.25;6.55;;;34.40;47.00;;;;;;4982374;28;20030;-78
2021/08/28 09:31:43;;;;;;;9.98;6.70;;;34.30;47.10;;;;;;5001380;28;20014;-79
2021/08/28 09:34:15;;;;;;;6.95;6.03;;;34.10;47.10;;;;;;5000442;28;20050;-77
2021/08/28 09:36:41;;;;;;;7.80;6.72;;;34.00;47.20;;;;;;5000193;28;20014;-78
2021/08/28 09:39:07;;;;;;;9.77;7.20;;;33.90;47.40;;;;;;4987750;28;20037;-77
2021/08/28 09:41:34;;;;;;;10.00;7.25;;;33.60;47.50;;;;;;5010695;28;20074;-78
2021/08/28 09:44:07;;;;;;;8.98;6.72;;;33.20;48.10;;;;;;5009709;28;20033;-79
2021/08/28 09:46:33;;;;;;;7.38;6.68;;;32.90;48.50;;;;;;5011082;28;20014;-78
2021/08/28 09:49:00;;;;;;;7.97;6.32;;;32.70;48.70;;;;;;5011627;28;20130;-79
2021/08/28 09:51:32;;;;;;;7.28;6.57;;;32.60;49.00;;;;;;5012367;28;20033;-79
2021/08/28 09:54:01;;;;;;;6.80;6.10;;;32.50;49.30;;;;;;5013074;28;20413;-79
2021/08/28 09:56:27;;;;;;;6.97;6.28;;;32.50;49.30;;;;;;5015181;28;20018;-79
2021/08/28 09:58:53;;;;;;;9.57;7.55;;;32.50;49.00;;;;;;5015347;28;20483;-79
2021/08/28 10:01:21;;;;;;;7.88;6.93;;;32.60;49.00;;;;;;5015764;28;20026;-79
2021/08/28 10:04:05;;;;;;;7.40;6.63;;;32.70;48.80;;;;;;5015350;28;20041;-80
2021/08/28 10:06:31;;;;;;;9.25;6.90;;;32.70;49.00;;;;;;5015013;28;20068;-79
2021/08/28 10:08:58;;;;;;;13.15;7.88;;;32.70;48.80;;;;;;5013451;28;20418;-79
2021/08/28 10:11:23;;;;;;;7.95;7.15;;;32.70;48.70;;;;;;5008764;28;20038;-79
2021/08/28 10:13:50;;;;;;;9.05;6.78;;;32.70;48.80;;;;;;5010153;28;20104;-79
2021/08/28 10:16:17;;;;;;;7.95;7.25;;;32.60;48.50;;;;;;5004904;28;20088;-79
2021/08/28 10:18:47;;;;;;;13.13;7.18;;;32.50;48.50;;;;;;4995058;28;20092;-79
2021/08/28 10:21:13;;;;;;;8.52;7.28;;;32.40;48.80;;;;;;5014266;28;20030;-85
2021/08/28 10:23:42;;;;;;;8.52;7.47;;;32.10;48.60;;;;;;5014807;28;20481;-79
2021/08/28 10:26:10;;;;;;;8.10;7.30;;;31.90;48.90;;;;;;4997097;28;20049;-80
2021/08/28 10:28:39;;;;;;;8.43;7.63;;;31.80;49.40;;;;;;5015693;28;20042;-79
2021/08/28 10:31:07;;;;;;;8.88;7.97;;;31.90;49.60;;;;;;5008991;28;20033;-81
2021/08/28 10:33:33;;;;;;;8.27;7.32;;;32.00;49.50;;;;;;4998142;28;20026;-79
2021/08/28 10:35:59;;;;;;;7.90;7.13;;;32.10;49.30;;;;;;4995995;28;20134;-80
2021/08/28 10:38:25;;;;;;;8.05;7.25;;;32.20;49.40;;;;;;5005297;28;20053;-80
2021/08/28 10:40:54;;;;;;;8.65;7.18;;;32.30;49.50;;;;;;4996828;28;20393;-78
2021/08/28 10:43:22;;;;;;;8.82;7.28;;;32.40;49.80;;;;;;5013871;28;20017;-78
2021/08/28 10:45:48;;;;;;;7.95;7.03;;;32.50;49.60;;;;;;5013279;28;20053;-77
2021/08/28 10:48:15;;;;;;;8.60;7.53;;;32.50;49.20;;;;;;5014560;28;20472;-76
2021/08/28 10:50:43;;;;;;;8.75;7.18;;;32.40;49.10;;;;;;5014693;28;20420;-80
2021/08/28 10:53:11;;;;;;;9.13;7.65;;;32.20;49.20;;;;;;5008882;28;20033;-80
2021/08/28 10:55:39;;;;;;;9.98;7.53;;;32.10;49.30;;;;;;5005723;28;20030;-80
2021/08/28 10:58:20;;;;;;;8.55;7.60;;;31.90;49.60;;;;;;5005797;28;20049;-82
2021/08/28 11:00:55;;;;;;;7.78;6.95;;;31.80;50.20;;;;;;4993040;28;20029;-83
2021/08/28 11:03:32;;;;;;;9.27;7.55;;;31.80;50.30;;;;;;4996527;28;20034;-80
2021/08/28 11:06:13;;;;;;;8.07;7.38;;;31.70;50.00;;;;;;4996973;28;20137;-80
2021/08/28 11:08:50;;;;;;;11.63;7.35;;;31.60;50.00;;;;;;4999807;28;20097;-79
2021/08/28 11:11:21;;;;;;;8.90;7.25;;;31.60;50.20;;;;;;5017385;28;20038;-79
2021/08/28 11:14:01;;;;;;;8.10;7.30;;;31.60;50.30;;;;;;4999511;28;20022;-82
2021/08/28 11:16:42;;;;;;;9.10;7.73;;;31.60;50.00;;;;;;5013909;28;20111;-80
2021/08/28 11:19:10;;;;;;;8.73;7.07;;;31.40;49.90;;;;;;4994873;28;20049;-81
2021/08/28 11:21:47;;;;;;;22.50;7.55;;;31.30;50.10;;;;;;4994216;28;20022;-80
2021/08/28 11:24:15;;;;;;;8.63;7.18;;;31.30;50.40;;;;;;4994525;28;20114;-79
2021/08/28 11:26:41;;;;;;;9.05;7.20;;;31.40;50.40;;;;;;4977545;28;20045;-84
2021/08/28 11:29:31;;;;;;;9.90;7.20;;;31.50;50.20;;;;;;4995800;28;20461;-84
2021/08/28 11:32:12;;;;;;;7.70;6.90;;;31.40;50.10;;;;;;5013878;28;20056;-84
2021/08/28 11:34:41;;;;;;;;;;;31.10;50.00;;;;;;5017234;28;20014;-83
2021/08/28 11:37:26;;;;;;;8.25;7.32;;;30.90;50.20;;;;;;5015240;28;19909;-88
2021/08/28 11:39:53;;;;;;;9.70;7.03;;;30.70;50.60;;;;;;5012184;28;20472;-82
2021/08/28 11:42:19;;;;;;;8.77;7.30;;;30.60;51.00;;;;;;4995437;28;20046;-81
2021/08/28 11:44:49;;;;;;;27.98;7.65;;;30.50;51.20;;;;;;5013157;28;20068;-79
2021/08/28 11:47:14;;;;;;;7.60;6.72;;;30.50;51.20;;;;;;5012959;28;20032;-79
2021/08/28 11:49:41;;;;;;;8.38;7.10;;;30.50;51.00;;;;;;5013015;28;20363;-78
2021/08/28 11:52:07;;;;;;;9.43;6.57;;;30.50;51.20;;;;;;5005898;28;20034;-79
2021/08/28 11:54:34;;;;;;;9.20;6.45;;;30.70;51.20;;;;;;5013437;28;20472;-82
2021/08/28 11:57:00;;;;;;;9.13;6.60;;;30.80;50.80;;;;;;4996667;28;20026;-84
2021/08/28 11:59:44;;;;;;;10.90;7.00;;;31.00;50.60;;;;;;5006649;28;20106;-82
2021/08/28 12:02:12;;;;;;;8.82;6.50;;;31.00;50.60;;;;;;5006494;28;20033;-78
2021/08/28 12:04:38;;;;;;;8.00;6.20;;;31.00;50.20;;;;;;5013123;28;20022;-79
2021/08/28 12:07:05;;;;;;;6.30;5.70;;;30.90;50.10;;;;;;5013155;28;20033;-82
2021/08/28 12:09:32;;;;;;;7.53;6.30;;;31.00;50.10;;;;;;4995211;28;20480;-78
2021/08/28 12:11:59;;;;;;;7.15;6.07;;;30.90;49.70;;;;;;5013507;28;20064;-85
2021/08/28 12:14:28;;;;;;;11.85;6.90;;;30.90;49.70;;;;;;5012651;28;20021;-84
2021/08/28 12:16:55;;;;;;;6.68;5.97;;;30.90;49.90;;;;;;5002545;28;20018;-86
2021/08/28 12:19:27;;;;;;;7.78;5.88;;;30.90;49.60;;;;;;5013813;28;20029;-85
2021/08/28 12:22:00;;;;;;;7.10;6.40;;;30.80;49.50;;;;;;4996252;28;20026;-86
2021/08/28 12:24:28;;;;;;;7.68;6.88;;;30.80;49.50;;;;;;4995969;28;20713;-82
2021/08/28 12:27:06;;;;;;;6.93;6.22;;;30.70;49.50;;;;;;5013443;28;20054;-86
2021/08/28 12:29:37;;;;;;;8.07;5.72;;;30.70;48.80;;;;;;5017253;28;20026;-82
2021/08/28 12:32:08;;;;;;;;;;;30.60;48.60;;;;;;5028638;28;20033;-83
2021/08/28 12:34:35;;;;;;;7.90;5.43;;;30.40;48.70;;;;;;5017710;28;19906;-85
2021/08/28 12:37:03;;;;;;;6.65;6.05;;;30.40;49.00;;;;;;5013544;28;20469;-84